CMB846 Details

Departure: Bahrain International Airport (OBBI)
Arrival: NAS Sigonella (LICZ) at N/A
Route: NARMI N697 KITOT SISIK UN697 MENLI L677 CVO A1 NOZ A1 METRU P868 ARLOS T340 EVLIB M871 ERNAM ERNAM2J
Notes: USTRANSCOM CONTRACT FLIGHT


Current Weather Information
OBBI 251130Z 01011KT CAVOK 37/28 Q1001 NOSIG
LICZ 251055Z 09011KT 9999 FEW035TCU 31/21 Q1015 RMK FEW VIS MIN 9999 WIND THR28 09009KT WIND THR10 08008KT A3000 BLU